Time;durP1;ratioP1;P1;durP2;ratioP2;P2;SDS_P1;SDS_P2;PMS_P1;PMS_P2;Temp;Humidity;BMP_temperature;BMP_pressure;BME280_temperature;BME280_humidity;BME280_pressure;Samples;Min_cycle;Max_cycle;Signal;HPM_P1;HPM_P2
2024/03/06 00:00:36;;;;;;;6.57;5.63;;;14.30;66.20;;;;;;4236560;27;20058;-46
2024/03/06 00:03:18;;;;;;;7.63;6.50;;;14.30;65.10;;;;;;4207646;27;20055;-46
2024/03/06 00:05:59;;;;;;;9.32;5.65;;;14.20;64.00;;;;;;4206338;28;20047;-48
2024/03/06 00:08:40;;;;;;;11.50;5.53;;;14.20;65.30;;;;;;4206291;28;20116;-47
2024/03/06 00:11:21;;;;;;;7.10;5.50;;;14.20;64.90;;;;;;4223085;27;20047;-47
2024/03/06 00:14:03;;;;;;;9.50;6.03;;;14.20;66.50;;;;;;4207281;27;20380;-46
2024/03/06 00:16:44;;;;;;;8.05;6.25;;;14.20;66.70;;;;;;4216816;27;20078;-46
2024/03/06 00:19:26;;;;;;;6.65;5.50;;;14.20;64.30;;;;;;4222986;27;20113;-44
2024/03/06 00:22:08;;;;;;;9.68;6.10;;;14.10;63.90;;;;;;4222191;27;20146;-44
2024/03/06 00:24:48;;;;;;;7.53;6.22;;;14.10;64.90;;;;;;4207767;28;20087;-47
2024/03/06 00:27:29;;;;;;;7.88;5.30;;;14.10;64.50;;;;;;4221780;27;20051;-48
2024/03/06 00:30:11;;;;;;;7.47;5.38;;;14.10;65.00;;;;;;4200751;28;20048;-45
2024/03/06 00:32:53;;;;;;;9.70;5.68;;;14.10;64.40;;;;;;4222661;27;20513;-48
2024/03/06 00:35:35;;;;;;;13.20;6.18;;;14.10;63.70;;;;;;4222591;27;20114;-48
2024/03/06 00:38:17;;;;;;;8.45;5.20;;;14.10;63.60;;;;;;4208679;28;20058;-47
2024/03/06 00:40:58;;;;;;;8.02;5.60;;;14.10;64.30;;;;;;4194978;28;20093;-49
2024/03/06 00:43:39;;;;;;;9.98;5.32;;;14.00;65.60;;;;;;4218748;27;20057;-46
2024/03/06 00:46:20;;;;;;;8.55;4.80;;;14.00;62.90;;;;;;4209835;27;20181;-44
2024/03/06 00:49:01;;;;;;;11.40;5.60;;;14.00;62.20;;;;;;4213271;27;20128;-44
2024/03/06 00:51:44;;;;;;;7.75;5.70;;;14.00;64.20;;;;;;4207439;27;20701;-45
2024/03/06 00:54:28;;;;;;;9.70;5.15;;;14.00;63.90;;;;;;4209363;28;20105;-47
2024/03/06 00:57:10;;;;;;;9.60;5.60;;;14.00;65.50;;;;;;4189128;28;20067;-49
2024/03/06 00:59:51;;;;;;;7.25;4.72;;;13.90;65.30;;;;;;4189854;28;20071;-45
2024/03/06 01:02:32;;;;;;;9.07;6.53;;;13.90;63.10;;;;;;4188653;28;20414;-50
2024/03/06 01:05:13;;;;;;;8.32;5.78;;;13.90;62.20;;;;;;4200321;28;20078;-49
2024/03/06 01:07:56;;;;;;;5.97;5.38;;;13.90;64.20;;;;;;4204951;28;20051;-48
2024/03/06 01:10:38;;;;;;;7.53;5.47;;;13.90;63.60;;;;;;4191438;28;20101;-52
2024/03/06 01:13:19;;;;;;;5.88;5.10;;;13.90;62.80;;;;;;4204610;28;20047;-47
2024/03/06 01:16:00;;;;;;;11.38;5.82;;;13.90;63.40;;;;;;4206912;27;20058;-49
2024/03/06 01:18:41;;;;;;;6.30;5.32;;;13.90;62.20;;;;;;4208839;27;20108;-44
2024/03/06 01:21:22;;;;;;;7.15;5.85;;;13.90;63.30;;;;;;4207707;28;20063;-46
2024/03/06 01:24:05;;;;;;;9.18;6.38;;;13.90;62.80;;;;;;4222133;27;20188;-47
2024/03/06 01:26:46;;;;;;;8.30;6.22;;;13.80;62.00;;;;;;4221985;28;20455;-47
2024/03/06 01:29:28;;;;;;;11.48;5.00;;;13.80;61.50;;;;;;4221538;27;20054;-44
2024/03/06 01:32:09;;;;;;;12.32;6.60;;;13.80;63.30;;;;;;4219744;27;20043;-47
2024/03/06 01:34:50;;;;;;;;;;;13.80;62.50;;;;;;4205915;28;20046;-44
2024/03/06 01:37:31;;;;;;;9.35;5.82;;;13.80;62.60;;;;;;4213975;28;19931;-45
2024/03/06 01:40:14;;;;;;;7.47;6.35;;;13.80;63.80;;;;;;4207625;28;20051;-48
2024/03/06 01:42:55;;;;;;;8.77;6.32;;;13.70;62.50;;;;;;4219858;28;20081;-47
2024/03/06 01:45:37;;;;;;;12.68;6.95;;;13.70;62.50;;;;;;4221525;27;20059;-43
2024/03/06 01:48:21;;;;;;;9.45;5.70;;;13.80;63.20;;;;;;4204714;28;20050;-45
2024/03/06 01:51:04;;;;;;;7.75;6.20;;;13.70;63.60;;;;;;4210685;27;20058;-44
2024/03/06 01:53:45;;;;;;;7.45;5.90;;;13.80;66.50;;;;;;4204877;28;20063;-45
2024/03/06 01:56:29;;;;;;;13.27;6.35;;;13.90;68.40;;;;;;4205539;28;20051;-49
2024/03/06 01:59:10;;;;;;;8.52;6.22;;;14.00;69.70;;;;;;4221448;28;20581;-47
2024/03/06 02:02:01;;;;;;;10.23;6.43;;;14.20;68.80;;;;;;4221091;28;20112;-49
2024/03/06 02:04:42;;;;;;;8.27;6.35;;;14.30;68.40;;;;;;4220426;28;20090;-44
2024/03/06 02:07:25;;;;;;;7.43;5.63;;;14.40;69.00;;;;;;4238031;27;20414;-49
2024/03/06 02:10:07;;;;;;;6.95;6.13;;;14.50;68.20;;;;;;4224637;27;20050;-44
2024/03/06 02:12:52;;;;;;;7.95;6.18;;;14.50;68.70;;;;;;4204723;28;20126;-45
2024/03/06 02:15:33;;;;;;;8.85;6.18;;;14.60;67.80;;;;;;4197255;28;20055;-49
2024/03/06 02:18:14;;;;;;;11.07;6.35;;;14.60;68.60;;;;;;4187426;28;20059;-46
2024/03/06 02:20:57;;;;;;;9.45;6.65;;;14.60;67.90;;;;;;4202746;27;20075;-44
2024/03/06 02:23:38;;;;;;;9.70;5.82;;;14.60;69.30;;;;;;4203787;27;20047;-47
2024/03/06 02:26:19;;;;;;;8.98;7.03;;;14.60;70.00;;;;;;4221063;28;20092;-44
2024/03/06 02:29:00;;;;;;;6.78;5.47;;;14.70;69.80;;;;;;4221909;28;20058;-45
2024/03/06 02:31:41;;;;;;;10.23;6.30;;;14.70;68.30;;;;;;4204150;28;20586;-46
2024/03/06 02:34:24;;;;;;;8.30;5.97;;;14.80;68.90;;;;;;4205684;28;20096;-44
2024/03/06 02:37:06;;;;;;;11.43;6.05;;;14.80;68.70;;;;;;4190187;28;20055;-43
2024/03/06 02:39:47;;;;;;;9.18;6.68;;;14.80;69.50;;;;;;4213141;28;20124;-50
2024/03/06 02:42:29;;;;;;;9.07;7.07;;;14.80;69.20;;;;;;4204604;28;20055;-49
2024/03/06 02:45:10;;;;;;;7.30;6.35;;;14.80;68.90;;;;;;4189854;28;20048;-48
2024/03/06 02:47:51;;;;;;;;;;;14.80;69.10;;;;;;4201895;28;20047;-44
2024/03/06 02:50:32;;;;;;;9.65;6.05;;;14.90;68.90;;;;;;4191228;28;20042;-47
2024/03/06 02:53:15;;;;;;;8.50;5.70;;;14.90;68.60;;;;;;4218585;28;20507;-47
2024/03/06 02:55:56;;;;;;;8.52;6.30;;;14.90;68.90;;;;;;4205765;27;20043;-45
2024/03/06 02:58:37;;;;;;;8.20;6.72;;;14.90;69.00;;;;;;4202894;28;20097;-44
2024/03/06 03:01:19;;;;;;;6.78;5.90;;;14.90;66.90;;;;;;4206407;27;20519;-46
2024/03/06 03:04:02;;;;;;;8.55;5.80;;;14.90;67.40;;;;;;4209590;27;20059;-51
2024/03/06 03:06:43;;;;;;;7.13;5.97;;;14.90;68.30;;;;;;4220364;28;20050;-51
2024/03/06 03:09:25;;;;;;;10.32;8.52;;;14.90;68.90;;;;;;4218963;28;20059;-48
2024/03/06 03:12:06;;;;;;;7.68;6.50;;;15.00;67.90;;;;;;4213721;27;20051;-46
2024/03/06 03:14:47;;;;;;;9.75;6.75;;;15.00;68.80;;;;;;4203271;28;20062;-48
2024/03/06 03:17:29;;;;;;;8.43;6.95;;;15.00;68.60;;;;;;4204065;27;20408;-44
2024/03/06 03:20:11;;;;;;;10.32;6.38;;;15.00;69.90;;;;;;4209648;27;20055;-48
2024/03/06 03:22:52;;;;;;;8.35;6.35;;;15.10;66.80;;;;;;4219417;28;20073;-48
2024/03/06 03:25:35;;;;;;;9.60;6.35;;;15.10;68.60;;;;;;4206972;28;20062;-49
2024/03/06 03:28:16;;;;;;;11.18;6.90;;;15.00;68.30;;;;;;4206676;28;20043;-44
2024/03/06 03:30:57;;;;;;;8.30;7.05;;;15.10;68.30;;;;;;4200058;28;20112;-50
2024/03/06 03:33:39;;;;;;;;;;;15.10;68.30;;;;;;4216205;27;20496;-52
2024/03/06 03:36:20;;;;;;;9.30;7.00;;;15.10;69.10;;;;;;4207179;28;19931;-48
2024/03/06 03:39:03;;;;;;;9.63;7.07;;;15.00;69.50;;;;;;4217739;27;20859;-50
2024/03/06 03:41:46;;;;;;;9.68;7.03;;;15.00;69.90;;;;;;4222480;27;20131;-44
2024/03/06 03:44:27;;;;;;;10.60;7.13;;;15.00;70.30;;;;;;4237603;27;20184;-44
2024/03/06 03:47:08;;;;;;;8.85;6.55;;;15.00;68.80;;;;;;4240450;27;20054;-46
2024/03/06 03:49:50;;;;;;;8.52;7.00;;;15.00;69.30;;;;;;4241126;27;20066;-44
2024/03/06 03:52:41;;;;;;;8.55;6.60;;;15.00;69.00;;;;;;4189645;28;20060;-44
2024/03/06 03:55:22;;;;;;;8.20;7.32;;;15.00;70.20;;;;;;4191105;28;20178;-49
2024/03/06 03:58:06;;;;;;;7.53;6.63;;;15.00;69.80;;;;;;4191341;28;20504;-47
2024/03/06 04:00:47;;;;;;;10.38;7.45;;;15.00;67.80;;;;;;4200428;27;20059;-44
2024/03/06 04:03:28;;;;;;;8.48;6.32;;;15.00;69.50;;;;;;4191758;28;20071;-45
2024/03/06 04:06:09;;;;;;;8.50;7.28;;;15.00;70.30;;;;;;4219603;27;20101;-45
2024/03/06 04:08:52;;;;;;;9.35;7.45;;;15.10;69.00;;;;;;4223247;27;20407;-44
2024/03/06 04:11:35;;;;;;;11.93;7.45;;;15.00;68.20;;;;;;4220592;28;20062;-49
2024/03/06 04:14:19;;;;;;;10.32;6.85;;;15.00;67.80;;;;;;4208090;28;20051;-49
2024/03/06 04:17:03;;;;;;;9.73;7.00;;;15.00;68.10;;;;;;4222013;27;20061;-49
2024/03/06 04:19:45;;;;;;;9.55;7.38;;;15.00;69.50;;;;;;4237475;27;20411;-50
2024/03/06 04:22:26;;;;;;;7.95;7.03;;;15.00;69.60;;;;;;4207747;27;20087;-45
2024/03/06 04:25:07;;;;;;;9.73;7.18;;;15.10;69.80;;;;;;4222536;27;20119;-48
2024/03/06 04:27:48;;;;;;;6.82;6.13;;;15.20;69.60;;;;;;4222923;28;20139;-45
2024/03/06 04:30:30;;;;;;;7.88;6.18;;;15.20;69.40;;;;;;4210335;27;20047;-48
2024/03/06 04:33:13;;;;;;;9.82;7.40;;;15.30;69.50;;;;;;4204800;28;20055;-48
2024/03/06 04:35:54;;;;;;;10.77;7.60;;;15.30;69.90;;;;;;4205992;28;20051;-50
2024/03/06 04:38:36;;;;;;;8.93;7.05;;;15.30;69.00;;;;;;4206273;28;20046;-46
2024/03/06 04:41:19;;;;;;;8.63;7.38;;;15.20;68.10;;;;;;4213235;27;20055;-50
2024/03/06 04:44:00;;;;;;;9.43;6.93;;;15.20;68.40;;;;;;4222719;27;20487;-47
2024/03/06 04:46:43;;;;;;;;;;;15.20;69.10;;;;;;4222540;27;20503;-46
2024/03/06 04:49:24;;;;;;;10.60;7.80;;;15.20;69.30;;;;;;4206025;28;20008;-42
2024/03/06 04:52:05;;;;;;;9.77;7.65;;;15.30;69.10;;;;;;4198468;28;20051;-46
2024/03/06 04:54:46;;;;;;;8.27;7.40;;;15.30;66.90;;;;;;4191948;28;20047;-42
2024/03/06 04:57:28;;;;;;;8.82;7.70;;;15.30;65.70;;;;;;4205339;28;20386;-42
2024/03/06 05:00:10;;;;;;;9.65;7.35;;;15.30;66.60;;;;;;4213493;27;20388;-43
2024/03/06 05:02:53;;;;;;;8.75;7.57;;;15.30;66.60;;;;;;4211212;27;20062;-42
2024/03/06 05:05:52;;;;;;;10.40;7.72;;;15.30;67.00;;;;;;4198500;28;20462;-48
2024/03/06 05:08:50;;;;;;;11.30;7.93;;;15.30;66.60;;;;;;4188114;28;20513;-47
2024/03/06 05:11:50;;;;;;;9.10;7.47;;;15.30;67.30;;;;;;4205327;28;20055;-49
2024/03/06 05:14:49;;;;;;;9.00;7.20;;;15.30;67.20;;;;;;4204506;28;20140;-45
2024/03/06 05:17:47;;;;;;;9.90;7.22;;;15.30;68.50;;;;;;4189666;28;20067;-44
2024/03/06 05:20:47;;;;;;;10.85;7.82;;;15.40;67.20;;;;;;4220103;27;20054;-47
2024/03/06 05:23:46;;;;;;;8.88;7.32;;;15.40;66.70;;;;;;4220484;27;20046;-42
2024/03/06 05:26:44;;;;;;;11.70;8.65;;;15.40;67.60;;;;;;4221435;27;20514;-46
2024/03/06 05:29:43;;;;;;;8.73;7.00;;;15.40;67.50;;;;;;4202961;28;20051;-47
2024/03/06 05:32:42;;;;;;;10.07;7.70;;;15.30;66.20;;;;;;4205056;28;20083;-44
2024/03/06 05:35:40;;;;;;;11.63;7.57;;;15.30;66.30;;;;;;4205097;28;20063;-42
2024/03/06 05:38:40;;;;;;;9.25;6.40;;;15.30;67.60;;;;;;4206023;27;20075;-47
2024/03/06 05:41:38;;;;;;;9.88;7.18;;;15.30;67.20;;;;;;4187318;28;20557;-46
2024/03/06 05:44:37;;;;;;;9.02;8.10;;;15.40;68.20;;;;;;4215427;27;20097;-43
2024/03/06 05:47:35;;;;;;;10.60;7.55;;;15.40;66.80;;;;;;4190863;28;20051;-44
2024/03/06 05:50:34;;;;;;;20.48;9.30;;;15.40;67.80;;;;;;4203117;28;20109;-46
2024/03/06 05:53:37;;;;;;;10.23;8.60;;;15.40;68.10;;;;;;4206683;28;22237;-47
2024/03/06 05:56:38;;;;;;;12.02;8.15;;;15.50;66.80;;;;;;4202808;28;20059;-46
2024/03/06 05:59:37;;;;;;;8.98;6.82;;;15.50;65.90;;;;;;4209469;28;20100;-47
2024/03/06 06:02:19;;;;;;;14.25;8.70;;;15.50;66.90;;;;;;4221231;27;20506;-47
2024/03/06 06:05:00;;;;;;;8.07;7.28;;;15.60;67.60;;;;;;4217731;27;20055;-44
2024/03/06 06:07:50;;;;;;;10.70;7.13;;;15.70;65.60;;;;;;4206718;28;20055;-44
2024/03/06 06:10:31;;;;;;;9.15;7.10;;;15.70;66.70;;;;;;4220740;28;20054;-48
2024/03/06 06:13:14;;;;;;;10.45;7.68;;;15.70;65.80;;;;;;4217061;27;20173;-50
2024/03/06 06:15:55;;;;;;;11.82;7.88;;;15.60;66.50;;;;;;4228004;27;20072;-45
2024/03/06 06:18:36;;;;;;;10.13;7.97;;;15.60;67.80;;;;;;4238255;27;20197;-43
2024/03/06 06:21:18;;;;;;;11.77;8.30;;;15.60;67.00;;;;;;4190398;28;20051;-46
2024/03/06 06:23:59;;;;;;;8.93;7.45;;;15.60;67.60;;;;;;4206791;28;20059;-48
2024/03/06 06:26:40;;;;;;;10.13;7.63;;;15.60;67.90;;;;;;4209844;27;20866;-42
2024/03/06 06:29:22;;;;;;;11.50;7.35;;;15.60;68.50;;;;;;4188822;28;20081;-48
2024/03/06 06:32:03;;;;;;;9.35;7.47;;;15.60;68.40;;;;;;4187205;28;20101;-48
2024/03/06 06:34:45;;;;;;;12.50;8.30;;;15.60;68.90;;;;;;4203106;28;20055;-44
2024/03/06 06:37:27;;;;;;;12.38;8.30;;;15.70;68.10;;;;;;4206057;28;20047;-42
2024/03/06 06:40:11;;;;;;;9.73;8.02;;;15.70;68.60;;;;;;4212047;28;20063;-46
2024/03/06 06:42:54;;;;;;;10.65;8.88;;;15.70;68.30;;;;;;4189179;28;20497;-46
2024/03/06 06:45:37;;;;;;;10.38;8.30;;;15.70;68.10;;;;;;4203122;28;20055;-46
2024/03/06 06:48:19;;;;;;;12.30;8.25;;;15.70;65.70;;;;;;4194214;28;20100;-49
2024/03/06 06:51:02;;;;;;;12.68;8.00;;;15.70;66.40;;;;;;4204337;28;20055;-42
2024/03/06 06:53:43;;;;;;;11.68;8.43;;;15.60;67.10;;;;;;4188581;28;20554;-47
2024/03/06 06:56:25;;;;;;;12.32;7.60;;;15.60;66.80;;;;;;4186323;28;20055;-45
2024/03/06 06:59:06;;;;;;;9.25;8.35;;;15.50;67.90;;;;;;4194501;27;20352;-43
2024/03/06 07:01:48;;;;;;;10.93;8.13;;;15.40;68.10;;;;;;4215165;28;20050;-48
2024/03/06 07:04:29;;;;;;;9.20;7.80;;;15.30;66.80;;;;;;4211137;27;20079;-43
2024/03/06 07:07:10;;;;;;;12.73;8.40;;;15.30;67.40;;;;;;4205331;27;20177;-43
2024/03/06 07:09:51;;;;;;;12.07;8.18;;;15.30;68.40;;;;;;4216247;28;20050;-46
2024/03/06 07:12:32;;;;;;;8.60;5.93;;;15.40;67.40;;;;;;4203202;28;20112;-42
2024/03/06 07:15:13;;;;;;;11.45;8.38;;;15.40;69.00;;;;;;4217716;27;20047;-48
2024/03/06 07:17:56;;;;;;;10.93;7.95;;;15.50;69.30;;;;;;4199223;28;20050;-44
2024/03/06 07:20:37;;;;;;;12.95;8.95;;;15.60;69.00;;;;;;4207363;28;20063;-49
2024/03/06 07:23:18;;;;;;;16.98;9.10;;;15.60;69.00;;;;;;4202372;28;20539;-46
2024/03/06 07:25:59;;;;;;;11.57;8.35;;;15.60;68.10;;;;;;4220776;28;20070;-46
2024/03/06 07:28:40;;;;;;;10.73;8.38;;;15.60;67.70;;;;;;4220517;28;20051;-46
2024/03/06 07:31:21;;;;;;;9.90;8.20;;;15.60;67.90;;;;;;4203530;28;20175;-45
2024/03/06 07:34:04;;;;;;;11.32;8.38;;;15.50;68.00;;;;;;4203192;28;20047;-47
2024/03/06 07:36:46;;;;;;;12.90;8.50;;;15.50;68.00;;;;;;4203645;28;20055;-45
2024/03/06 07:39:27;;;;;;;14.50;8.60;;;15.40;68.40;;;;;;4191857;28;20404;-48
2024/03/06 07:42:09;;;;;;;11.02;7.20;;;15.40;68.70;;;;;;4220454;28;20074;-48
2024/03/06 07:44:51;;;;;;;10.43;7.68;;;15.50;69.10;;;;;;4219552;28;20130;-46
2024/03/06 07:47:33;;;;;;;8.98;7.63;;;15.50;69.10;;;;;;4212143;27;21674;-47
2024/03/06 07:50:18;;;;;;;11.02;8.73;;;15.50;68.30;;;;;;4201806;28;20854;-50
2024/03/06 07:52:59;;;;;;;10.30;7.75;;;15.50;68.30;;;;;;4214343;28;20047;-48
2024/03/06 07:55:40;;;;;;;12.00;8.55;;;15.50;68.60;;;;;;4204844;28;20055;-46
2024/03/06 07:58:21;;;;;;;14.50;8.95;;;15.50;68.10;;;;;;4201163;28;20071;-51
2024/03/06 08:01:02;;;;;;;12.15;8.90;;;15.50;67.80;;;;;;4208208;28;20050;-46
2024/03/06 08:03:44;;;;;;;11.27;8.48;;;15.50;68.40;;;;;;4205480;28;20078;-48
2024/03/06 08:06:26;;;;;;;12.18;9.48;;;15.60;68.10;;;;;;4219081;28;20055;-46
2024/03/06 08:09:08;;;;;;;12.43;8.25;;;15.70;68.30;;;;;;4224795;27;20058;-47
2024/03/06 08:11:49;;;;;;;14.40;8.98;;;15.70;67.30;;;;;;4231401;27;20050;-48
2024/03/06 08:14:29;;;;;;;9.75;8.15;;;15.70;66.30;;;;;;4221743;27;20068;-47
2024/03/06 08:17:11;;;;;;;13.38;9.13;;;15.70;66.80;;;;;;4219084;27;20058;-48
2024/03/06 08:19:52;;;;;;;13.35;8.68;;;15.70;67.10;;;;;;4212588;27;20085;-52
2024/03/06 08:22:37;;;;;;;13.32;8.43;;;15.70;67.40;;;;;;4214229;28;20062;-49
2024/03/06 08:25:19;;;;;;;11.52;7.93;;;15.70;66.60;;;;;;4200399;28;20051;-49
2024/03/06 08:28:00;;;;;;;9.48;8.30;;;15.60;67.50;;;;;;4198867;27;20055;-45
2024/03/06 08:30:41;;;;;;;14.00;9.05;;;15.60;67.90;;;;;;4211014;27;20055;-48
2024/03/06 08:33:22;;;;;;;14.60;9.60;;;15.50;68.40;;;;;;4203119;28;20149;-49
2024/03/06 08:36:04;;;;;;;12.82;9.32;;;15.50;68.00;;;;;;4202074;28;20058;-47
2024/03/06 08:38:46;;;;;;;13.95;9.20;;;15.30;68.20;;;;;;4206358;28;20182;-48
2024/03/06 08:41:27;;;;;;;11.70;8.55;;;15.30;68.30;;;;;;4205926;28;20075;-46
2024/03/06 08:44:08;;;;;;;13.00;9.00;;;15.30;68.90;;;;;;4212312;27;20051;-47
2024/03/06 08:46:50;;;;;;;11.65;9.02;;;15.30;69.00;;;;;;4194906;28;20069;-46
2024/03/06 08:49:31;;;;;;;11.95;9.07;;;15.40;69.20;;;;;;4206269;28;20134;-49
2024/03/06 08:52:13;;;;;;;12.30;9.32;;;15.30;69.20;;;;;;4224551;27;20555;-49
2024/03/06 08:54:56;;;;;;;12.05;8.80;;;15.40;69.10;;;;;;4191132;27;20783;-48
2024/03/06 08:57:38;;;;;;;12.82;8.82;;;15.50;68.60;;;;;;4193426;28;20068;-47
2024/03/06 09:00:20;;;;;;;15.00;9.35;;;15.50;68.70;;;;;;4214466;28;20160;-46
2024/03/06 09:03:01;;;;;;;;;;;15.50;68.30;;;;;;4209476;27;20062;-47
2024/03/06 09:05:42;;;;;;;14.20;8.70;;;15.50;68.30;;;;;;4216981;28;20013;-47
2024/03/06 09:08:23;;;;;;;14.35;9.02;;;15.40;68.90;;;;;;4222525;28;20045;-48
2024/03/06 09:11:06;;;;;;;15.70;9.38;;;15.40;68.50;;;;;;4238882;27;20077;-47
2024/03/06 09:13:47;;;;;;;12.98;9.20;;;15.40;69.50;;;;;;4195127;28;20075;-47
2024/03/06 09:16:28;;;;;;;11.93;9.48;;;15.40;68.70;;;;;;4222044;28;20075;-47
2024/03/06 09:19:10;;;;;;;12.98;10.05;;;15.30;69.10;;;;;;4216707;28;20078;-45
2024/03/06 09:21:53;;;;;;;14.75;8.80;;;15.20;69.20;;;;;;4207747;28;20063;-49
2024/03/06 09:24:35;;;;;;;13.95;10.38;;;15.20;70.10;;;;;;4218142;27;20132;-45
2024/03/06 09:27:17;;;;;;;14.32;9.32;;;15.10;69.30;;;;;;4220583;27;20400;-49
2024/03/06 09:29:59;;;;;;;14.98;10.98;;;15.10;69.00;;;;;;4235620;27;20103;-48
2024/03/06 09:32:41;;;;;;;;;;;15.10;69.30;;;;;;4239288;27;20072;-52
2024/03/06 09:35:23;;;;;;;13.80;9.18;;;15.10;69.90;;;;;;4188521;28;20005;-49
2024/03/06 09:38:04;;;;;;;15.25;9.20;;;15.10;69.80;;;;;;4189517;28;20554;-46
2024/03/06 09:40:46;;;;;;;;;;;15.20;69.00;;;;;;4198043;28;20055;-51
2024/03/06 09:43:28;;;;;;;12.57;9.45;;;15.30;68.60;;;;;;4208676;27;20068;-49
2024/03/06 09:46:12;;;;;;;15.80;11.68;;;15.30;69.70;;;;;;4204996;28;20051;-52
2024/03/06 09:48:53;;;;;;;18.25;11.68;;;15.30;70.90;;;;;;4204373;28;20404;-51
2024/03/06 09:51:35;;;;;;;17.65;10.93;;;15.30;71.20;;;;;;4208953;28;20063;-50
2024/03/06 09:54:17;;;;;;;15.80;10.25;;;15.30;70.30;;;;;;4213038;27;20540;-51
2024/03/06 09:57:00;;;;;;;17.60;11.75;;;15.30;70.50;;;;;;4238407;27;20172;-48
2024/03/06 09:59:43;;;;;;;16.35;10.88;;;15.30;69.60;;;;;;4220228;27;20499;-48
2024/03/06 10:02:36;;;;;;;14.63;10.77;;;15.40;68.80;;;;;;4208221;27;20454;-49
2024/03/06 10:05:27;;;;;;;15.45;9.80;;;15.40;68.90;;;;;;4219837;27;20590;-50
2024/03/06 10:08:08;;;;;;;18.60;10.40;;;15.50;69.90;;;;;;4204180;28;20047;-50
2024/03/06 10:10:50;;;;;;;16.48;10.02;;;15.60;69.40;;;;;;4194771;28;20086;-48
2024/03/06 10:13:32;;;;;;;18.58;10.80;;;15.60;68.70;;;;;;4187733;28;20056;-48
2024/03/06 10:16:15;;;;;;;16.25;10.85;;;15.60;69.20;;;;;;4191147;28;20733;-45
2024/03/06 10:18:55;;;;;;;13.95;10.30;;;15.70;69.30;;;;;;4189230;28;20386;-48
2024/03/06 10:21:37;;;;;;;;;;;15.80;69.10;;;;;;4193916;27;20173;-48
2024/03/06 10:24:20;;;;;;;18.20;11.55;;;15.80;68.80;;;;;;4212940;27;20064;-47
2024/03/06 10:27:01;;;;;;;20.65;11.77;;;15.80;69.00;;;;;;4188109;28;20514;-48
2024/03/06 10:29:42;;;;;;;19.25;11.35;;;15.70;68.70;;;;;;4187140;28;20054;-47
2024/03/06 10:32:25;;;;;;;17.85;10.90;;;15.70;68.70;;;;;;4196531;27;20066;-47
2024/03/06 10:35:07;;;;;;;19.70;11.18;;;15.60;69.00;;;;;;4203063;28;20043;-46
2024/03/06 10:37:49;;;;;;;20.85;11.73;;;15.60;69.20;;;;;;4222492;27;20058;-47
2024/03/06 10:40:32;;;;;;;23.65;13.07;;;15.50;69.50;;;;;;4202186;28;20098;-47
2024/03/06 10:43:14;;;;;;;19.10;11.98;;;15.50;69.60;;;;;;4190672;28;20097;-45
2024/03/06 10:46:01;;;;;;;19.95;12.48;;;15.50;69.60;;;;;;4186849;28;20059;-49
2024/03/06 10:48:45;;;;;;;18.80;12.02;;;15.50;69.80;;;;;;4187927;28;20077;-47
2024/03/06 10:51:31;;;;;;;21.77;12.57;;;15.50;69.70;;;;;;4195280;28;20564;-47
2024/03/06 10:54:14;;;;;;;22.63;13.30;;;15.50;69.90;;;;;;4196790;28;20055;-48
2024/03/06 10:56:56;;;;;;;22.52;12.38;;;15.60;69.50;;;;;;4217843;28;20058;-48
2024/03/06 10:59:37;;;;;;;20.63;12.10;;;15.60;67.90;;;;;;4219185;28;20819;-44
2024/03/06 11:02:21;;;;;;;18.30;12.00;;;15.70;68.50;;;;;;4187225;28;20604;-47
2024/03/06 11:05:05;;;;;;;18.42;12.00;;;15.70;68.80;;;;;;4190838;28;20313;-47
2024/03/06 11:07:46;;;;;;;23.23;14.00;;;15.70;68.90;;;;;;4204795;28;20066;-47
2024/03/06 11:10:34;;;;;;;23.48;13.05;;;15.70;68.10;;;;;;4204727;28;20047;-47
2024/03/06 11:13:23;;;;;;;19.80;12.85;;;15.60;67.80;;;;;;4204693;27;20197;-47
2024/03/06 11:16:05;;;;;;;23.15;13.40;;;15.60;68.60;;;;;;4194947;28;20125;-47
2024/03/06 11:18:47;;;;;;;22.33;13.75;;;15.60;68.90;;;;;;4188788;28;20134;-48
2024/03/06 11:21:33;;;;;;;22.20;13.88;;;15.50;68.70;;;;;;4204692;28;20170;-47
2024/03/06 11:24:15;;;;;;;22.83;13.65;;;15.50;68.80;;;;;;4204295;28;20085;-50
2024/03/06 11:26:58;;;;;;;20.08;12.82;;;15.40;68.50;;;;;;4205003;28;20055;-49
2024/03/06 11:30:10;;;;;;;20.00;12.52;;;15.40;68.70;;;;;;4189327;28;20090;-46
2024/03/06 11:33:01;;;;;;;;;;;15.30;68.50;;;;;;4187926;28;20524;-47
2024/03/06 11:35:44;;;;;;;20.27;13.37;;;15.30;69.30;;;;;;4190717;28;19931;-44
2024/03/06 11:38:30;;;;;;;24.35;13.55;;;15.20;70.40;;;;;;4205760;28;20070;-42
2024/03/06 11:41:11;;;;;;;19.77;12.20;;;15.20;71.60;;;;;;4189813;28;20101;-42
2024/03/06 11:43:53;;;;;;;21.83;12.93;;;15.20;73.20;;;;;;4203684;28;20185;-43
2024/03/06 11:46:44;;;;;;;19.23;11.73;;;15.20;74.00;;;;;;4206069;28;20063;-49
2024/03/06 11:49:28;;;;;;;22.63;14.20;;;15.20;74.40;;;;;;4203393;28;20111;-42
2024/03/06 11:52:10;;;;;;;22.15;14.73;;;15.20;75.40;;;;;;4189572;28;20129;-41
2024/03/06 11:54:53;;;;;;;21.65;13.50;;;15.30;76.00;;;;;;4205822;28;20051;-49
2024/03/06 11:57:36;;;;;;;26.20;16.15;;;15.50;74.30;;;;;;4205616;28;20102;-43
2024/03/06 12:00:18;;;;;;;20.10;13.27;;;15.60;74.20;;;;;;4213873;27;20486;-43
2024/03/06 12:02:59;;;;;;;22.42;14.45;;;15.70;73.50;;;;;;4207687;27;20067;-44
2024/03/06 12:05:39;;;;;;;18.70;14.20;;;15.80;73.60;;;;;;4218965;27;20640;-44
2024/03/06 12:08:20;;;;;;;20.65;13.20;;;15.80;72.30;;;;;;4222684;27;20731;-44
2024/03/06 12:11:04;;;;;;;19.80;12.85;;;15.90;72.50;;;;;;4219472;27;20047;-44
2024/03/06 12:13:47;;;;;;;17.95;12.43;;;15.90;69.60;;;;;;4205934;28;20504;-41
2024/03/06 12:16:29;;;;;;;19.50;13.60;;;16.00;71.40;;;;;;4204535;28;20044;-41
2024/03/06 12:19:10;;;;;;;22.35;14.32;;;16.00;72.90;;;;;;4187776;28;20492;-45
2024/03/06 12:21:53;;;;;;;23.30;14.00;;;15.90;71.90;;;;;;4173935;28;20186;-47
2024/03/06 12:24:34;;;;;;;21.67;15.15;;;16.00;72.50;;;;;;4187013;28;20099;-41
2024/03/06 12:27:23;;;;;;;25.02;13.90;;;16.00;73.40;;;;;;4188235;28;20055;-46
2024/03/06 12:30:12;;;;;;;17.70;13.45;;;16.00;73.40;;;;;;4183515;28;20149;-47
2024/03/06 12:33:04;;;;;;;22.45;15.68;;;16.00;72.50;;;;;;4186540;28;20222;-46
2024/03/06 12:35:45;;;;;;;20.90;14.00;;;16.10;71.50;;;;;;4187920;28;20074;-47
2024/03/06 12:38:30;;;;;;;22.33;13.75;;;16.10;69.60;;;;;;4193766;28;20040;-46
2024/03/06 12:41:11;;;;;;;19.30;13.52;;;16.20;71.70;;;;;;4193428;28;20039;-44
2024/03/06 12:43:54;;;;;;;21.55;14.73;;;16.10;71.30;;;;;;4190138;28;20075;-47
2024/03/06 12:46:35;;;;;;;19.63;13.65;;;16.10;71.00;;;;;;4188166;28;20055;-45
2024/03/06 12:49:16;;;;;;;19.77;12.55;;;16.10;70.70;;;;;;4205650;28;20456;-44
2024/03/06 12:51:57;;;;;;;20.15;14.55;;;16.00;71.50;;;;;;4203461;28;20051;-46
2024/03/06 12:54:39;;;;;;;20.08;14.48;;;16.00;73.20;;;;;;4203843;28;20054;-48
2024/03/06 12:57:22;;;;;;;19.13;13.30;;;16.10;73.90;;;;;;4174095;28;20620;-48
2024/03/06 13:00:10;;;;;;;20.52;14.98;;;16.10;73.70;;;;;;4157814;28;20067;-46
2024/03/06 13:02:52;;;;;;;21.05;13.73;;;16.20;72.70;;;;;;4187120;28;20068;-47
2024/03/06 13:05:33;;;;;;;22.08;13.93;;;16.20;70.80;;;;;;4188401;28;20143;-44
2024/03/06 13:08:15;;;;;;;19.33;13.13;;;16.20;72.10;;;;;;4182363;28;20158;-47
2024/03/06 13:10:56;;;;;;;18.25;13.93;;;16.30;71.10;;;;;;4188498;28;20074;-45
2024/03/06 13:13:37;;;;;;;18.95;13.30;;;16.30;72.70;;;;;;4185957;28;20051;-45
2024/03/06 13:16:19;;;;;;;19.55;13.52;;;16.40;71.80;;;;;;4195405;28;20180;-45
2024/03/06 13:19:03;;;;;;;19.35;13.43;;;16.50;71.50;;;;;;4205371;28;20471;-45
2024/03/06 13:21:43;;;;;;;17.77;13.20;;;16.50;71.20;;;;;;4199381;28;20063;-48
2024/03/06 13:24:24;;;;;;;24.02;13.68;;;16.50;70.40;;;;;;4175342;28;20094;-43
2024/03/06 13:27:06;;;;;;;20.63;14.43;;;16.50;70.60;;;;;;4187924;28;20059;-44
2024/03/06 13:29:47;;;;;;;20.70;13.93;;;16.50;69.60;;;;;;4185068;28;20055;-46
2024/03/06 13:32:29;;;;;;;22.33;14.10;;;16.60;69.10;;;;;;4173367;28;20060;-48
2024/03/06 13:35:12;;;;;;;23.05;15.07;;;16.50;67.90;;;;;;4171001;28;20048;-45
2024/03/06 13:37:53;;;;;;;20.77;15.02;;;16.50;67.90;;;;;;4203400;28;20185;-44
2024/03/06 13:40:35;;;;;;;21.08;14.55;;;16.40;67.50;;;;;;4205018;28;20071;-47
2024/03/06 13:43:16;;;;;;;19.58;14.27;;;16.40;68.90;;;;;;4195906;28;20052;-47
2024/03/06 13:45:56;;;;;;;20.15;14.77;;;16.40;67.40;;;;;;4170131;28;20043;-46
2024/03/06 13:48:39;;;;;;;21.20;14.63;;;16.50;67.90;;;;;;4189224;28;20055;-45
2024/03/06 13:51:20;;;;;;;20.13;15.07;;;16.50;69.70;;;;;;4205342;28;20047;-44
2024/03/06 13:54:01;;;;;;;22.75;14.25;;;16.50;69.30;;;;;;4203790;28;20047;-47
2024/03/06 13:56:43;;;;;;;19.30;15.05;;;16.50;68.50;;;;;;4204804;28;20511;-47
2024/03/06 13:59:24;;;;;;;24.85;15.75;;;16.40;68.70;;;;;;4204556;28;20059;-44
2024/03/06 14:02:06;;;;;;;20.60;13.75;;;16.40;66.60;;;;;;4204499;28;20054;-45